Time;durP1;ratioP1;P1;durP2;ratioP2;P2;SDS_P1;SDS_P2;PMS_P1;PMS_P2;Temp;Humidity;BMP_temperature;BMP_pressure;BME280_temperature;BME280_humidity;BME280_pressure;Samples;Min_cycle;Max_cycle;Signal;HPM_P1;HPM_P2
2023/01/13 00:00:18;;;;;;;3.63;1.50;;;;;;;;;;5114389;28;20206;-71
2023/01/13 00:02:44;;;;;;;5.60;2.20;;;;;;;;;;5115979;28;20165;-71
2023/01/13 00:05:10;;;;;;;1.87;1.57;;;;;;;;;;5114379;28;20641;-70
2023/01/13 00:07:37;;;;;;;2.20;1.43;;;;;;;;;;5114390;28;20203;-71
2023/01/13 00:10:03;;;;;;;2.90;1.47;;;;;;;;;;5112363;28;20172;-71
2023/01/13 00:12:29;;;;;;;2.90;1.50;;;;;;;;;;5113659;28;20244;-72
2023/01/13 00:14:55;;;;;;;5.50;1.90;;;;;;;;;;5113448;28;20660;-69
2023/01/13 00:17:21;;;;;;;3.17;1.70;;;;;;;;;;5113357;28;20258;-70
2023/01/13 00:19:47;;;;;;;3.77;2.00;;;;;;;;;;5113443;28;20549;-70
2023/01/13 00:22:13;;;;;;;3.63;1.53;;;;;;;;;;5113418;28;20181;-70
2023/01/13 00:24:39;;;;;;;2.83;1.63;;;;;;;;;;5112022;28;20173;-70
2023/01/13 00:27:05;;;;;;;5.30;2.20;;;;;;;;;;5113448;28;20271;-69
2023/01/13 00:29:31;;;;;;;2.23;1.77;;;;;;;;;;5112126;28;20211;-70
2023/01/13 00:31:57;;;;;;;4.00;2.13;;;;;;;;;;5113442;28;20172;-70
2023/01/13 00:34:23;;;;;;;5.23;1.73;;;;;;;;;;5113732;28;20196;-71
2023/01/13 00:36:49;;;;;;;5.17;2.10;;;;;;;;;;5113632;28;20189;-70
2023/01/13 00:39:15;;;;;;;5.43;1.80;;;;;;;;;;5113836;28;20196;-70
2023/01/13 00:44:25;;;;;;;5.77;1.83;;;;;;;;;;5123914;28;20176;-70
2023/01/13 00:46:51;;;;;;;6.07;2.20;;;;;;;;;;5123602;28;20216;-70
2023/01/13 00:49:17;;;;;;;7.17;1.90;;;;;;;;;;5123178;28;20181;-69
2023/01/13 00:51:43;;;;;;;8.20;1.87;;;;;;;;;;5115958;28;20172;-70
2023/01/13 00:54:09;;;;;;;6.40;1.70;;;;;;;;;;5114839;28;20176;-71
2023/01/13 00:56:35;;;;;;;6.43;2.07;;;;;;;;;;5116732;28;20204;-70
2023/01/13 00:59:02;;;;;;;7.07;1.97;;;;;;;;;;5117338;28;20229;-70
2023/01/13 01:01:28;;;;;;;7.30;2.10;;;;;;;;;;5116633;28;20172;-70
2023/01/13 01:03:55;;;;;;;5.73;2.40;;;;;;;;;;5116530;28;20179;-70
2023/01/13 01:06:23;;;;;;;6.03;2.10;;;;;;;;;;5116341;28;20200;-71
2023/01/13 01:08:49;;;;;;;8.57;2.50;;;;;;;;;;5116445;28;20244;-71
2023/01/13 01:11:25;;;;;;;7.00;2.10;;;;;;;;;;5116307;28;20177;-71
2023/01/13 01:13:52;;;;;;;10.03;2.63;;;;;;;;;;5116628;28;20306;-71
2023/01/13 01:16:19;;;;;;;10.10;2.60;;;;;;;;;;5116105;28;20196;-72
2023/01/13 01:18:46;;;;;;;7.07;2.50;;;;;;;;;;5116188;28;20653;-72
2023/01/13 01:21:13;;;;;;;12.77;2.73;;;;;;;;;;5116115;28;20172;-71
2023/01/13 01:23:39;;;;;;;9.50;2.53;;;;;;;;;;5116144;28;20634;-71
2023/01/13 01:26:10;;;;;;;9.93;2.77;;;;;;;;;;5116309;28;20183;-71
2023/01/13 01:28:36;;;;;;;11.03;2.47;;;;;;;;;;5116236;28;20188;-71
2023/01/13 01:31:08;;;;;;;9.83;2.97;;;;;;;;;;5116267;28;20172;-70
2023/01/13 01:33:34;;;;;;;9.50;2.73;;;;;;;;;;5116259;28;20634;-70
2023/01/13 01:36:00;;;;;;;12.57;3.27;;;;;;;;;;5115900;28;20173;-70
2023/01/13 01:38:26;;;;;;;9.80;2.87;;;;;;;;;;5115982;28;20203;-70
2023/01/13 01:40:52;;;;;;;11.70;2.73;;;;;;;;;;5115793;28;20203;-71
2023/01/13 01:46:04;;;;;;;11.57;3.53;;;;;;;;;;5116025;28;20668;-70
2023/01/13 01:48:33;;;;;;;10.33;2.53;;;;;;;;;;5116005;28;20165;-71
2023/01/13 01:50:59;;;;;;;13.13;3.27;;;;;;;;;;5115646;28;20183;-70
2023/01/13 01:53:26;;;;;;;8.57;2.73;;;;;;;;;;5115631;28;20183;-71
2023/01/13 01:55:52;;;;;;;14.43;3.17;;;;;;;;;;5115501;28;20562;-70
2023/01/13 01:58:21;;;;;;;13.37;3.33;;;;;;;;;;5115457;28;20200;-71
2023/01/13 02:00:47;;;;;;;10.67;2.83;;;;;;;;;;5115755;28;20172;-70
2023/01/13 02:03:14;;;;;;;15.67;3.17;;;;;;;;;;5115318;28;20177;-71
2023/01/13 02:05:40;;;;;;;19.97;3.40;;;;;;;;;;5115039;28;20179;-72
2023/01/13 02:08:07;;;;;;;14.70;3.03;;;;;;;;;;5115470;28;20639;-69
2023/01/13 02:10:33;;;;;;;12.63;2.97;;;;;;;;;;5115148;28;20173;-69
2023/01/13 02:13:00;;;;;;;10.83;3.20;;;;;;;;;;5115218;28;20183;-71
2023/01/13 02:15:29;;;;;;;13.07;3.73;;;;;;;;;;5113797;28;20230;-70
2023/01/13 02:18:14;;;;;;;14.77;4.03;;;;;;;;;;5115039;28;20242;-70
2023/01/13 02:20:44;;;;;;;11.37;3.50;;;;;;;;;;5116132;28;20203;-67
2023/01/13 02:26:13;;;;;;;15.03;3.50;;;;;;;;;;5114792;28;20644;-70
2023/01/13 02:31:46;;;;;;;13.33;4.23;;;;;;;;;;5114860;28;20556;-70
2023/01/13 02:34:22;;;;;;;15.30;3.00;;;;;;;;;;5115037;28;20215;-71
2023/01/13 02:37:04;;;;;;;13.73;3.10;;;;;;;;;;5114688;28;20199;-69
2023/01/13 02:39:36;;;;;;;17.70;3.60;;;;;;;;;;5114561;28;20232;-71
2023/01/13 02:44:55;;;;;;;11.87;4.03;;;;;;;;;;5114596;28;20222;-71
2023/01/13 02:47:25;;;;;;;12.70;3.37;;;;;;;;;;5114613;28;20216;-68
2023/01/13 02:49:57;;;;;;;11.00;3.40;;;;;;;;;;5114775;28;20172;-70
2023/01/13 02:52:36;;;;;;;15.77;3.90;;;;;;;;;;5114294;28;20179;-70
2023/01/13 02:55:04;;;;;;;17.53;3.60;;;;;;;;;;5114559;28;20221;-71
2023/01/13 02:57:32;;;;;;;18.37;4.13;;;;;;;;;;5114063;28;20260;-70
2023/01/13 02:59:58;;;;;;;13.07;4.30;;;;;;;;;;5114502;28;20184;-70
2023/01/13 03:02:24;;;;;;;23.17;3.87;;;;;;;;;;5112981;28;20177;-70
2023/01/13 03:04:55;;;;;;;19.67;4.40;;;;;;;;;;5113109;28;20172;-71
2023/01/13 03:07:40;;;;;;;15.47;3.43;;;;;;;;;;5112777;28;20209;-70
2023/01/13 03:10:09;;;;;;;21.23;4.93;;;;;;;;;;5114046;28;20258;-70
2023/01/13 03:12:39;;;;;;;18.30;4.60;;;;;;;;;;5114133;28;20169;-70
2023/01/13 03:15:08;;;;;;;19.90;4.07;;;;;;;;;;5112501;28;20206;-72
2023/01/13 03:17:39;;;;;;;18.20;4.40;;;;;;;;;;5113790;28;20249;-70
2023/01/13 03:20:31;;;;;;;19.43;3.97;;;;;;;;;;5114046;28;20188;-71
2023/01/13 03:22:57;;;;;;;21.17;4.30;;;;;;;;;;5136664;22;20228;-71
2023/01/13 03:25:25;;;;;;;15.07;3.73;;;;;;;;;;5114623;28;20165;-70
2023/01/13 03:27:57;;;;;;;21.10;4.10;;;;;;;;;;5112777;28;20180;-70
2023/01/13 03:30:22;;;;;;;18.33;4.30;;;;;;;;;;5114131;28;20229;-70
2023/01/13 03:32:51;;;;;;;20.97;4.20;;;;;;;;;;5114246;28;20208;-70
2023/01/13 03:35:35;;;;;;;19.20;4.30;;;;;;;;;;5114171;28;20657;-70
2023/01/13 03:38:07;;;;;;;17.47;3.40;;;;;;;;;;5115534;28;20228;-70
2023/01/13 03:40:34;;;;;;;12.10;3.40;;;;;;;;;;5112841;28;20215;-70
2023/01/13 03:45:52;;;;;;;12.40;3.20;;;;;;;;;;5114452;28;20256;-70
2023/01/13 03:48:19;;;;;;;12.17;3.07;;;;;;;;;;5114555;28;20562;-71
2023/01/13 03:50:48;;;;;;;9.47;2.70;;;;;;;;;;5112817;28;20187;-72
2023/01/13 03:53:18;;;;;;;15.37;3.17;;;;;;;;;;5114021;28;20576;-71
2023/01/13 03:55:46;;;;;;;10.60;3.00;;;;;;;;;;5113871;28;20184;-70
2023/01/13 03:58:18;;;;;;;12.60;2.90;;;;;;;;;;5114338;28;20210;-71
2023/01/13 04:00:47;;;;;;;12.33;2.97;;;;;;;;;;5113910;28;20247;-71
2023/01/13 04:03:17;;;;;;;8.30;2.60;;;;;;;;;;5112425;28;20203;-71
2023/01/13 04:05:45;;;;;;;11.03;2.80;;;;;;;;;;5112531;28;20634;-71
2023/01/13 04:08:16;;;;;;;9.00;2.53;;;;;;;;;;5114033;28;20180;-72
2023/01/13 04:10:51;;;;;;;12.33;2.67;;;;;;;;;;5112687;28;20172;-70
2023/01/13 04:13:19;;;;;;;10.50;2.67;;;;;;;;;;5113889;28;20195;-71
2023/01/13 04:15:46;;;;;;;13.03;3.60;;;;;;;;;;5114023;28;20208;-71
2023/01/13 04:18:12;;;;;;;13.20;2.53;;;;;;;;;;5112418;28;20204;-71
2023/01/13 04:20:38;;;;;;;10.50;3.00;;;;;;;;;;5113821;28;20180;-71
2023/01/13 04:23:05;;;;;;;9.23;2.60;;;;;;;;;;5112907;28;20235;-70
2023/01/13 04:25:31;;;;;;;10.47;2.57;;;;;;;;;;5112399;28;20212;-71
2023/01/13 04:27:57;;;;;;;10.30;2.80;;;;;;;;;;5117694;28;20559;-72
2023/01/13 04:30:23;;;;;;;10.80;2.70;;;;;;;;;;5116585;28;20180;-70
2023/01/13 04:32:48;;;;;;;15.57;2.90;;;;;;;;;;5116219;28;20176;-70
2023/01/13 04:35:14;;;;;;;11.43;2.70;;;;;;;;;;5116079;28;20191;-70
2023/01/13 04:37:40;;;;;;;14.63;3.00;;;;;;;;;;5117282;28;20197;-70
2023/01/13 04:40:07;;;;;;;11.20;2.73;;;;;;;;;;5115947;28;20260;-71
2023/01/13 04:42:33;;;;;;;13.83;3.30;;;;;;;;;;5117169;28;20173;-72
2023/01/13 04:44:58;;;;;;;11.27;3.13;;;;;;;;;;5117559;28;20173;-71
2023/01/13 04:47:24;;;;;;;11.27;3.00;;;;;;;;;;5117133;28;20266;-71
2023/01/13 04:49:50;;;;;;;17.17;3.57;;;;;;;;;;5115959;28;20210;-71
2023/01/13 04:52:16;;;;;;;12.47;3.30;;;;;;;;;;5115823;28;20195;-71
2023/01/13 04:54:42;;;;;;;10.63;3.20;;;;;;;;;;5115466;28;20300;-71
2023/01/13 04:57:08;;;;;;;12.73;3.70;;;;;;;;;;5117023;28;20226;-71
2023/01/13 04:59:34;;;;;;;14.63;3.60;;;;;;;;;;5116653;28;20256;-73
2023/01/13 05:02:00;;;;;;;12.90;3.20;;;;;;;;;;5115396;28;20173;-71
2023/01/13 05:04:26;;;;;;;14.40;4.23;;;;;;;;;;5116789;28;20197;-71
2023/01/13 05:06:52;;;;;;;11.13;3.13;;;;;;;;;;5115406;28;20275;-70
2023/01/13 05:09:18;;;;;;;23.27;3.93;;;;;;;;;;5117151;28;20212;-71
2023/01/13 05:17:18;;;;;;;16.97;3.03;;;;;;;;;;5117484;28;20179;-71
2023/01/13 05:19:44;;;;;;;14.87;3.90;;;;;;;;;;5122882;28;20668;-71
2023/01/13 05:27:39;;;;;;;12.90;3.20;;;;;;;;;;5116982;28;20221;-71
2023/01/13 05:30:05;;;;;;;11.67;3.13;;;;;;;;;;5115267;28;20180;-71
2023/01/13 05:32:32;;;;;;;10.23;3.53;;;;;;;;;;5114872;28;20215;-71
2023/01/13 05:34:57;;;;;;;17.83;3.40;;;;;;;;;;5115075;28;20211;-71
2023/01/13 05:37:24;;;;;;;15.97;3.83;;;;;;;;;;5116046;28;20173;-71
2023/01/13 05:45:20;;;;;;;9.20;3.37;;;;;;;;;;5117531;28;20195;-71
2023/01/13 05:47:46;;;;;;;13.63;2.80;;;;;;;;;;5117550;28;20176;-70
2023/01/13 05:50:12;;;;;;;14.27;3.30;;;;;;;;;;5119490;28;20184;-70
2023/01/13 05:52:38;;;;;;;9.53;3.17;;;;;;;;;;5116353;28;20172;-72
2023/01/13 05:55:04;;;;;;;12.03;2.80;;;;;;;;;;5114692;28;20181;-71
2023/01/13 05:57:30;;;;;;;11.50;2.80;;;;;;;;;;5114648;28;20176;-71
2023/01/13 05:59:56;;;;;;;10.40;2.97;;;;;;;;;;5116093;28;20182;-72
2023/01/13 06:02:22;;;;;;;10.90;2.60;;;;;;;;;;5114606;28;20553;-72
2023/01/13 06:04:48;;;;;;;16.40;3.57;;;;;;;;;;5114185;28;20331;-71
2023/01/13 06:07:14;;;;;;;11.03;2.93;;;;;;;;;;5116027;28;20605;-71
2023/01/13 06:09:39;;;;;;;12.33;3.27;;;;;;;;;;5116380;28;20186;-71
2023/01/13 06:12:06;;;;;;;12.47;2.80;;;;;;;;;;5117487;28;20203;-71
2023/01/13 06:14:40;;;;;;;18.60;4.07;;;;;;;;;;5114387;28;20204;-71
2023/01/13 06:17:07;;;;;;;16.27;3.93;;;;;;;;;;5114810;28;20237;-71
2023/01/13 06:19:33;;;;;;;14.90;3.67;;;;;;;;;;5115399;28;20227;-70
2023/01/13 06:22:01;;;;;;;15.13;3.37;;;;;;;;;;5116000;28;20176;-71
2023/01/13 06:24:27;;;;;;;13.90;3.43;;;;;;;;;;5115325;28;20219;-71
2023/01/13 06:26:54;;;;;;;13.10;3.37;;;;;;;;;;5114149;28;20180;-71
2023/01/13 06:29:19;;;;;;;9.33;3.10;;;;;;;;;;5115413;28;20180;-71
2023/01/13 06:31:45;;;;;;;13.67;3.17;;;;;;;;;;5113990;28;20219;-72
2023/01/13 06:34:13;;;;;;;19.77;3.40;;;;;;;;;;5115598;28;20362;-71
2023/01/13 06:36:41;;;;;;;16.33;3.80;;;;;;;;;;5113897;28;20201;-71
2023/01/13 06:39:08;;;;;;;13.60;3.03;;;;;;;;;;5114200;28;20210;-70
2023/01/13 06:44:19;;;;;;;12.10;3.07;;;;;;;;;;5115927;28;20211;-71
2023/01/13 06:46:46;;;;;;;19.37;3.67;;;;;;;;;;5113414;28;20176;-71
2023/01/13 06:49:12;;;;;;;18.80;3.83;;;;;;;;;;5113756;28;20631;-71
2023/01/13 06:51:38;;;;;;;6.57;2.43;;;;;;;;;;5113347;28;20184;-71
2023/01/13 06:54:04;;;;;;;12.17;3.00;;;;;;;;;;5113411;28;20681;-71
2023/01/13 06:56:30;;;;;;;14.13;3.63;;;;;;;;;;5114562;28;20234;-71
2023/01/13 06:58:56;;;;;;;15.87;3.57;;;;;;;;;;5114717;28;20568;-71
2023/01/13 07:01:22;;;;;;;11.63;3.33;;;;;;;;;;5116198;28;20177;-71
2023/01/13 07:03:48;;;;;;;9.97;2.90;;;;;;;;;;5113620;28;20254;-72
2023/01/13 07:06:14;;;;;;;16.93;3.30;;;;;;;;;;5113156;28;20181;-70
2023/01/13 07:08:40;;;;;;;15.33;3.30;;;;;;;;;;5114494;28;20330;-70
2023/01/13 07:11:06;;;;;;;14.33;2.97;;;;;;;;;;5114533;28;20211;-71
2023/01/13 07:16:18;;;;;;;15.30;3.47;;;;;;;;;;5114664;28;20586;-71
2023/01/13 07:18:44;;;;;;;11.77;3.30;;;;;;;;;;5112988;28;20290;-71
2023/01/13 07:21:12;;;;;;;9.77;3.20;;;;;;;;;;5114252;28;20173;-71
2023/01/13 07:23:39;;;;;;;16.70;3.60;;;;;;;;;;5113987;28;20211;-71
2023/01/13 07:26:05;;;;;;;12.17;3.40;;;;;;;;;;5114451;28;20176;-71
2023/01/13 07:28:31;;;;;;;12.13;3.10;;;;;;;;;;5114314;28;20222;-71
2023/01/13 07:30:57;;;;;;;18.67;3.27;;;;;;;;;;5114293;28;20208;-71
2023/01/13 07:33:25;;;;;;;13.83;3.90;;;;;;;;;;5113003;28;20230;-71
2023/01/13 07:36:00;;;;;;;12.50;3.77;;;;;;;;;;5114055;28;20173;-72
2023/01/13 07:38:26;;;;;;;11.93;3.03;;;;;;;;;;5113883;28;20195;-71
2023/01/13 07:40:53;;;;;;;13.87;3.47;;;;;;;;;;5114072;28;20641;-71
2023/01/13 07:43:30;;;;;;;12.03;3.10;;;;;;;;;;5112769;28;20196;-71
2023/01/13 07:46:04;;;;;;;11.87;2.90;;;;;;;;;;5112651;28;20618;-71
2023/01/13 07:48:31;;;;;;;14.20;3.23;;;;;;;;;;5113956;28;20203;-70
2023/01/13 07:51:00;;;;;;;9.77;3.43;;;;;;;;;;5112787;28;20241;-71
2023/01/13 07:53:26;;;;;;;12.13;3.53;;;;;;;;;;5115201;28;20222;-71
2023/01/13 07:55:56;;;;;;;6.93;2.33;;;;;;;;;;5114034;28;20180;-71
2023/01/13 07:58:22;;;;;;;11.90;3.50;;;;;;;;;;5112527;28;20303;-71
2023/01/13 08:00:48;;;;;;;13.43;3.07;;;;;;;;;;5112616;28;20200;-71
2023/01/13 08:03:14;;;;;;;12.57;3.03;;;;;;;;;;5116652;28;20566;-71
2023/01/13 08:05:40;;;;;;;13.00;3.00;;;;;;;;;;5117930;28;20181;-71
2023/01/13 08:08:06;;;;;;;10.50;2.67;;;;;;;;;;5118164;28;20172;-71
2023/01/13 08:10:32;;;;;;;13.03;3.20;;;;;;;;;;5116511;28;20187;-70
2023/01/13 08:13:16;;;;;;;12.30;3.00;;;;;;;;;;5117946;28;20290;-71
2023/01/13 08:15:42;;;;;;;9.83;3.47;;;;;;;;;;5117786;28;20165;-71
2023/01/13 08:18:08;;;;;;;15.90;3.40;;;;;;;;;;5117485;28;20200;-70
2023/01/13 08:20:34;;;;;;;15.13;3.93;;;;;;;;;;5116451;28;20182;-71
2023/01/13 08:23:00;;;;;;;16.73;3.57;;;;;;;;;;5117267;28;20208;-71
2023/01/13 08:25:27;;;;;;;10.63;2.90;;;;;;;;;;5117749;28;20165;-71
2023/01/13 08:27:53;;;;;;;18.07;3.57;;;;;;;;;;5117502;28;20176;-71
2023/01/13 08:30:19;;;;;;;15.47;3.73;;;;;;;;;;5116147;28;20702;-71
2023/01/13 08:32:46;;;;;;;12.47;3.63;;;;;;;;;;5116045;28;20176;-71
2023/01/13 08:35:12;;;;;;;12.70;3.67;;;;;;;;;;5117593;28;20184;-70
2023/01/13 08:37:39;;;;;;;18.50;4.13;;;;;;;;;;5116200;28;20184;-70
2023/01/13 08:40:05;;;;;;;15.57;3.80;;;;;;;;;;5117752;28;20173;-70
2023/01/13 08:42:31;;;;;;;10.33;3.40;;;;;;;;;;5117443;28;20176;-71
2023/01/13 08:44:57;;;;;;;15.80;3.70;;;;;;;;;;5121289;28;20187;-71
2023/01/13 08:47:23;;;;;;;14.70;3.97;;;;;;;;;;5122116;28;20180;-70
2023/01/13 08:49:49;;;;;;;15.37;3.73;;;;;;;;;;5119711;28;20638;-71
2023/01/13 08:52:16;;;;;;;13.93;3.30;;;;;;;;;;5117512;28;20169;-70
2023/01/13 08:54:42;;;;;;;19.73;3.70;;;;;;;;;;5116989;28;20377;-70
2023/01/13 08:57:08;;;;;;;18.70;4.40;;;;;;;;;;5115812;28;20173;-71
2023/01/13 08:59:34;;;;;;;11.60;3.47;;;;;;;;;;5115426;28;20197;-71
2023/01/13 09:02:00;;;;;;;14.23;3.20;;;;;;;;;;5117228;28;20570;-71
2023/01/13 09:04:26;;;;;;;11.83;3.43;;;;;;;;;;5116976;28;20193;-71
2023/01/13 09:06:54;;;;;;;11.47;4.77;;;;;;;;;;5115642;28;20183;-71
2023/01/13 09:09:20;;;;;;;11.07;3.47;;;;;;;;;;5116719;28;20252;-71
2023/01/13 09:14:34;;;;;;;15.27;3.97;;;;;;;;;;5116084;28;20219;-71
2023/01/13 09:17:00;;;;;;;16.63;4.23;;;;;;;;;;5116752;28;20172;-71
2023/01/13 09:19:27;;;;;;;13.87;4.37;;;;;;;;;;5116552;28;20200;-71
2023/01/13 09:21:53;;;;;;;12.43;3.17;;;;;;;;;;5115044;28;20274;-71
2023/01/13 09:24:20;;;;;;;10.57;3.40;;;;;;;;;;5116325;28;20317;-71
2023/01/13 09:26:46;;;;;;;14.83;3.50;;;;;;;;;;5116772;28;20177;-71
2023/01/13 09:29:12;;;;;;;18.97;3.90;;;;;;;;;;5117770;28;20180;-71
2023/01/13 09:31:38;;;;;;;14.43;4.17;;;;;;;;;;5116920;28;20176;-70
2023/01/13 09:36:50;;;;;;;16.33;3.73;;;;;;;;;;5119505;28;20171;-71
2023/01/13 09:39:16;;;;;;;19.77;4.33;;;;;;;;;;5116395;28;20733;-71
2023/01/13 09:44:47;;;;;;;15.33;4.40;;;;;;;;;;5116242;28;20227;-71
2023/01/13 09:47:34;;;;;;;13.30;4.10;;;;;;;;;;5114791;28;20220;-71
2023/01/13 09:50:20;;;;;;;17.30;4.40;;;;;;;;;;5094840;28;20199;-70
2023/01/13 09:52:46;;;;;;;14.77;3.97;;;;;;;;;;5115828;28;20180;-71
2023/01/13 09:55:32;;;;;;;22.70;4.33;;;;;;;;;;5115521;28;20194;-71
2023/01/13 09:58:00;;;;;;;16.83;4.00;;;;;;;;;;5117170;28;20188;-72
2023/01/13 10:00:28;;;;;;;16.87;4.40;;;;;;;;;;5115868;28;20172;-71
2023/01/13 10:02:54;;;;;;;17.23;4.07;;;;;;;;;;5114327;28;20199;-71
2023/01/13 10:05:32;;;;;;;17.27;4.53;;;;;;;;;;5114335;28;20259;-71
2023/01/13 10:08:03;;;;;;;13.70;3.97;;;;;;;;;;5115752;28;20558;-71
2023/01/13 10:10:43;;;;;;;17.10;4.50;;;;;;;;;;5114100;28;20199;-72
2023/01/13 10:13:18;;;;;;;17.10;4.47;;;;;;;;;;5115266;28;20196;-71
2023/01/13 10:15:53;;;;;;;17.93;4.43;;;;;;;;;;5115589;28;20196;-71
2023/01/13 10:18:25;;;;;;;13.67;3.60;;;;;;;;;;5115372;28;20679;-71
2023/01/13 10:20:58;;;;;;;20.50;4.93;;;;;;;;;;5115433;28;20172;-71
2023/01/13 10:23:37;;;;;;;16.83;4.20;;;;;;;;;;5115286;28;20226;-71
2023/01/13 10:26:06;;;;;;;14.23;4.33;;;;;;;;;;5116510;28;20213;-71
2023/01/13 10:28:32;;;;;;;15.20;4.53;;;;;;;;;;5115584;28;20224;-71
2023/01/13 10:30:58;;;;;;;20.77;4.37;;;;;;;;;;5115258;28;20270;-71
2023/01/13 10:33:27;;;;;;;17.97;4.63;;;;;;;;;;5113738;28;20276;-71
2023/01/13 10:35:56;;;;;;;17.80;4.83;;;;;;;;;;5114859;28;20217;-71
2023/01/13 10:38:24;;;;;;;15.17;3.83;;;;;;;;;;5114756;28;20582;-71
2023/01/13 10:41:00;;;;;;;14.53;4.40;;;;;;;;;;5113674;28;20184;-70
2023/01/13 10:43:28;;;;;;;16.20;4.17;;;;;;;;;;5113332;28;20195;-71
2023/01/13 10:45:58;;;;;;;17.70;4.50;;;;;;;;;;5114972;28;20173;-71
2023/01/13 10:48:31;;;;;;;15.73;4.27;;;;;;;;;;5114677;28;20241;-71
2023/01/13 10:50:57;;;;;;;17.93;4.67;;;;;;;;;;5114711;28;20626;-71
2023/01/13 10:53:25;;;;;;;19.63;4.87;;;;;;;;;;5114184;28;20302;-70
2023/01/13 10:55:59;;;;;;;20.93;4.97;;;;;;;;;;5115157;28;20180;-71
2023/01/13 10:58:25;;;;;;;20.77;4.80;;;;;;;;;;5116392;28;20207;-71
2023/01/13 11:00:59;;;;;;;23.70;8.43;;;;;;;;;;5116856;28;20245;-71
2023/01/13 11:03:26;;;;;;;16.87;6.77;;;;;;;;;;5113714;28;20201;-71
2023/01/13 11:05:56;;;;;;;25.07;9.17;;;;;;;;;;5114874;28;20202;-70
2023/01/13 11:08:28;;;;;;;25.87;7.77;;;;;;;;;;5114659;28;20185;-70
2023/01/13 11:10:57;;;;;;;23.23;7.90;;;;;;;;;;5114258;28;20165;-70
2023/01/13 11:13:29;;;;;;;18.63;4.67;;;;;;;;;;5114744;28;20204;-71
2023/01/13 11:16:01;;;;;;;28.20;5.50;;;;;;;;;;5114525;28;20177;-70
2023/01/13 11:18:39;;;;;;;19.03;4.67;;;;;;;;;;5116453;28;20207;-71
2023/01/13 11:21:13;;;;;;;30.00;11.77;;;;;;;;;;5113238;28;20180;-70
2023/01/13 11:23:41;;;;;;;25.23;9.37;;;;;;;;;;5112851;28;20248;-71
2023/01/13 11:26:20;;;;;;;28.37;10.30;;;;;;;;;;5112976;28;20577;-71
2023/01/13 11:29:05;;;;;;;18.70;5.93;;;;;;;;;;5115141;28;20164;-71
2023/01/13 11:31:41;;;;;;;18.83;5.00;;;;;;;;;;5115715;28;20187;-70
2023/01/13 11:34:11;;;;;;;11.87;3.77;;;;;;;;;;5112888;28;20290;-71
2023/01/13 11:36:44;;;;;;;18.90;5.07;;;;;;;;;;5112222;28;20622;-71
2023/01/13 11:39:10;;;;;;;24.20;6.80;;;;;;;;;;5113280;28;20558;-70
2023/01/13 11:41:42;;;;;;;20.53;5.57;;;;;;;;;;5112843;28;20263;-71
2023/01/13 11:44:20;;;;;;;16.30;4.37;;;;;;;;;;5112629;28;20200;-70
2023/01/13 11:46:50;;;;;;;24.03;5.47;;;;;;;;;;5112828;28;20176;-71
2023/01/13 11:49:28;;;;;;;23.03;4.40;;;;;;;;;;5114845;28;20180;-71
2023/01/13 11:52:00;;;;;;;17.70;5.07;;;;;;;;;;5116066;28;20233;-71
2023/01/13 11:54:36;;;;;;;21.70;5.03;;;;;;;;;;5116349;28;20204;-71
2023/01/13 11:57:21;;;;;;;15.63;5.00;;;;;;;;;;5118200;28;20165;-72
2023/01/13 11:59:47;;;;;;;22.83;5.80;;;;;;;;;;5117634;28;20693;-71
2023/01/13 12:02:21;;;;;;;15.83;5.07;;;;;;;;;;5116991;28;20176;-71
2023/01/13 12:05:12;;;;;;;21.27;5.67;;;;;;;;;;5116001;28;20219;-71
2023/01/13 12:07:53;;;;;;;19.10;5.67;;;;;;;;;;5114903;28;20247;-71
2023/01/13 12:13:04;;;;;;;24.33;5.70;;;;;;;;;;5131359;22;20327;-71
2023/01/13 12:15:42;;;;;;;26.37;7.60;;;;;;;;;;5115375;28;20288;-72
2023/01/13 12:18:17;;;;;;;21.93;5.30;;;;;;;;;;5127304;28;20212;-72
2023/01/13 12:21:02;;;;;;;19.93;5.33;;;;;;;;;;5126689;28;20252;-72
2023/01/13 12:23:43;;;;;;;20.57;5.60;;;;;;;;;;5122728;28;20263;-73
2023/01/13 12:26:11;;;;;;;17.73;5.47;;;;;;;;;;5113009;28;20553;-73
2023/01/13 12:28:41;;;;;;;15.30;4.33;;;;;;;;;;5113591;28;20173;-72
2023/01/13 12:31:08;;;;;;;16.27;4.60;;;;;;;;;;5113289;28;20217;-72
2023/01/13 12:33:37;;;;;;;15.20;5.03;;;;;;;;;;5113283;28;20181;-72
2023/01/13 12:36:21;;;;;;;15.77;5.20;;;;;;;;;;5112078;28;20553;-72
2023/01/13 12:38:49;;;;;;;14.90;4.93;;;;;;;;;;5112188;28;20264;-72
2023/01/13 12:41:33;;;;;;;18.03;4.53;;;;;;;;;;5111757;28;20196;-72
2023/01/13 12:44:19;;;;;;;10.97;3.70;;;;;;;;;;5113142;28;20177;-72
2023/01/13 12:46:58;;;;;;;12.80;3.70;;;;;;;;;;5111843;28;20233;-73
2023/01/13 12:49:35;;;;;;;12.63;3.93;;;;;;;;;;5114802;28;20180;-72
2023/01/13 12:52:12;;;;;;;17.93;4.77;;;;;;;;;;5116781;28;20234;-70
2023/01/13 12:54:42;;;;;;;22.83;4.80;;;;;;;;;;5115565;28;20176;-72
2023/01/13 12:57:20;;;;;;;14.03;4.33;;;;;;;;;;5115747;28;20184;-72
2023/01/13 12:59:58;;;;;;;15.57;3.97;;;;;;;;;;5116606;28;20200;-72
2023/01/13 13:02:26;;;;;;;12.57;4.63;;;;;;;;;;5117266;28;20200;-73
2023/01/13 13:04:54;;;;;;;23.50;5.10;;;;;;;;;;5116623;28;20180;-72
2023/01/13 13:07:29;;;;;;;15.43;4.03;;;;;;;;;;5116841;28;20165;-71
2023/01/13 13:10:03;;;;;;;11.07;3.97;;;;;;;;;;5115084;28;20252;-72
2023/01/13 13:15:27;;;;;;;20.83;4.13;;;;;;;;;;5117113;28;20171;-73
2023/01/13 13:18:12;;;;;;;16.10;3.60;;;;;;;;;;5115401;28;20625;-70
2023/01/13 13:20:54;;;;;;;20.17;5.80;;;;;;;;;;5116450;28;20299;-73
2023/01/13 13:23:28;;;;;;;19.70;4.80;;;;;;;;;;5115231;28;20176;-73
2023/01/13 13:26:12;;;;;;;21.87;4.70;;;;;;;;;;5114741;28;20180;-71
2023/01/13 13:28:40;;;;;;;18.43;4.07;;;;;;;;;;5116216;28;20183;-72
2023/01/13 13:31:29;;;;;;;17.50;4.30;;;;;;;;;;5115930;28;20198;-71
2023/01/13 13:34:04;;;;;;;17.27;3.90;;;;;;;;;;5114578;28;20196;-72
2023/01/13 13:36:48;;;;;;;17.00;4.17;;;;;;;;;;5115933;28;20179;-72
2023/01/13 13:47:45;;;;;;;14.90;4.23;;;;;;;;;;5116252;28;20172;-74
2023/01/13 13:50:14;;;;;;;15.43;5.17;;;;;;;;;;5115809;28;20177;-72
2023/01/13 13:52:43;;;;;;;14.77;4.20;;;;;;;;;;5115977;28;20192;-71
2023/01/13 13:55:17;;;;;;;15.47;4.73;;;;;;;;;;5114260;28;20181;-72
2023/01/13 13:57:45;;;;;;;15.60;4.77;;;;;;;;;;5115496;28;20539;-73
2023/01/13 14:00:14;;;;;;;22.67;4.77;;;;;;;;;;5113587;28;20210;-73
2023/01/13 14:02:46;;;;;;;15.13;4.13;;;;;;;;;;5114386;28;20723;-71
2023/01/13 14:05:23;;;;;;;20.17;5.20;;;;;;;;;;5115491;28;20165;-72
2023/01/13 14:07:50;;;;;;;19.73;5.07;;;;;;;;;;5115632;28;20172;-71
2023/01/13 14:10:23;;;;;;;22.87;4.93;;;;;;;;;;5115321;28;20173;-71
2023/01/13 14:12:49;;;;;;;21.00;5.57;;;;;;;;;;5115355;28;20256;-71
2023/01/13 14:15:26;;;;;;;18.63;5.37;;;;;;;;;;5113898;28;20176;-72
2023/01/13 14:17:52;;;;;;;24.77;4.97;;;;;;;;;;5115290;28;20157;-71
2023/01/13 14:20:18;;;;;;;24.37;5.90;;;;;;;;;;5115458;28;20168;-72
2023/01/13 14:22:47;;;;;;;17.30;4.73;;;;;;;;;;5114948;28;20693;-72
2023/01/13 14:25:27;;;;;;;24.00;5.10;;;;;;;;;;5115253;28;20169;-75
2023/01/13 14:27:54;;;;;;;22.13;5.80;;;;;;;;;;5114048;28;20589;-72
2023/01/13 14:30:21;;;;;;;20.23;5.57;;;;;;;;;;5113712;28;20203;-71
2023/01/13 14:32:47;;;;;;;19.47;4.70;;;;;;;;;;5114881;28;20264;-72
2023/01/13 14:35:17;;;;;;;16.33;4.20;;;;;;;;;;5113508;28;20205;-72
2023/01/13 14:37:44;;;;;;;22.90;5.40;;;;;;;;;;5114650;28;20249;-71
2023/01/13 14:40:43;;;;;;;26.13;5.17;;;;;;;;;;5114664;28;20171;-72
2023/01/13 14:43:13;;;;;;;24.97;5.30;;;;;;;;;;5102230;28;20669;-72
2023/01/13 14:45:44;;;;;;;21.03;5.03;;;;;;;;;;5114607;28;20169;-72
2023/01/13 14:48:10;;;;;;;24.53;7.60;;;;;;;;;;5114432;28;20259;-73
2023/01/13 14:50:37;;;;;;;25.70;7.23;;;;;;;;;;5114390;28;20215;-73
2023/01/13 14:53:04;;;;;;;17.90;4.30;;;;;;;;;;5113333;28;20187;-74
2023/01/13 14:55:32;;;;;;;22.77;5.27;;;;;;;;;;5114536;28;20195;-72
2023/01/13 14:58:17;;;;;;;21.10;5.13;;;;;;;;;;5114674;28;20661;-73
2023/01/13 15:00:43;;;;;;;21.10;5.23;;;;;;;;;;5114393;28;20195;-72
2023/01/13 15:03:09;;;;;;;21.67;5.53;;;;;;;;;;5114321;28;20179;-73
2023/01/13 15:05:36;;;;;;;22.40;5.30;;;;;;;;;;5114208;28;20184;-73
2023/01/13 15:08:11;;;;;;;18.03;4.73;;;;;;;;;;5114562;28;20181;-71
2023/01/13 15:10:40;;;;;;;17.70;3.97;;;;;;;;;;5114235;28;20184;-72
2023/01/13 15:13:07;;;;;;;16.53;3.70;;;;;;;;;;5113575;28;20618;-73
2023/01/13 15:15:37;;;;;;;15.47;4.00;;;;;;;;;;5112237;28;20192;-72
2023/01/13 15:18:12;;;;;;;10.20;3.60;;;;;;;;;;5114468;28;20250;-71
2023/01/13 15:20:38;;;;;;;13.33;3.63;;;;;;;;;;5114278;28;20220;-73
2023/01/13 15:23:04;;;;;;;10.73;3.60;;;;;;;;;;5114245;28;20241;-72
2023/01/13 15:25:33;;;;;;;12.60;3.63;;;;;;;;;;5114370;28;20642;-73
2023/01/13 15:27:59;;;;;;;8.33;3.00;;;;;;;;;;5112920;28;20176;-71
2023/01/13 15:30:26;;;;;;;12.27;3.43;;;;;;;;;;5115055;28;20664;-72
2023/01/13 15:32:53;;;;;;;13.20;3.80;;;;;;;;;;5113966;28;20185;-73
2023/01/13 15:35:19;;;;;;;12.90;3.80;;;;;;;;;;5113960;28;20234;-70
2023/01/13 15:37:46;;;;;;;14.73;3.80;;;;;;;;;;5113838;28;20180;-72
2023/01/13 15:40:17;;;;;;;10.93;3.67;;;;;;;;;;5112531;28;20183;-72
2023/01/13 15:48:13;;;;;;;10.23;3.73;;;;;;;;;;5114395;28;20263;-71
2023/01/13 15:50:39;;;;;;;14.53;3.63;;;;;;;;;;5113624;28;20172;-74